sensor_id;sensor_type;location;lat;lon;timestamp;P1;durP1;ratioP1;P2;durP2;ratioP2
27293;SDS011;14785;52.556;13.430;2023-07-09T00:01:17;34.70;;;32.67;;
27293;SDS011;14785;52.556;13.430;2023-07-09T00:03:46;22.95;;;21.40;;
27293;SDS011;14785;52.556;13.430;2023-07-09T00:06:16;27.83;;;25.85;;
27293;SDS011;14785;52.556;13.430;2023-07-09T00:08:44;23.85;;;22.35;;
27293;SDS011;14785;52.556;13.430;2023-07-09T00:11:11;35.95;;;33.88;;
27293;SDS011;14785;52.556;13.430;2023-07-09T00:13:37;19.63;;;18.25;;
27293;SDS011;14785;52.556;13.430;2023-07-09T00:16:04;19.00;;;17.70;;
27293;SDS011;14785;52.556;13.430;2023-07-09T00:18:36;17.95;;;16.80;;
27293;SDS011;14785;52.556;13.430;2023-07-09T00:21:02;37.65;;;35.22;;
27293;SDS011;14785;52.556;13.430;2023-07-09T00:23:27;33.97;;;32.03;;
27293;SDS011;14785;52.556;13.430;2023-07-09T00:25:54;32.95;;;31.10;;
27293;SDS011;14785;52.556;13.430;2023-07-09T00:28:20;34.63;;;32.47;;
27293;SDS011;14785;52.556;13.430;2023-07-09T00:30:46;10.80;;;9.90;;
27293;SDS011;14785;52.556;13.430;2023-07-09T00:33:16;24.40;;;23.00;;
27293;SDS011;14785;52.556;13.430;2023-07-09T00:35:45;30.85;;;29.00;;
27293;SDS011;14785;52.556;13.430;2023-07-09T00:38:21;34.95;;;33.00;;
27293;SDS011;14785;52.556;13.430;2023-07-09T00:41:04;75.10;;;71.13;;
27293;SDS011;14785;52.556;13.430;2023-07-09T00:43:32;9.75;;;9.05;;
27293;SDS011;14785;52.556;13.430;2023-07-09T00:49:11;22.33;;;21.02;;
27293;SDS011;14785;52.556;13.430;2023-07-09T00:51:41;25.20;;;23.77;;
27293;SDS011;14785;52.556;13.430;2023-07-09T00:56:55;118.18;;;111.85;;
27293;SDS011;14785;52.556;13.430;2023-07-09T00:59:24;109.70;;;103.88;;
27293;SDS011;14785;52.556;13.430;2023-07-09T01:01:54;79.22;;;74.53;;
27293;SDS011;14785;52.556;13.430;2023-07-09T01:04:20;64.82;;;61.05;;
27293;SDS011;14785;52.556;13.430;2023-07-09T01:06:52;47.47;;;44.78;;
27293;SDS011;14785;52.556;13.430;2023-07-09T01:09:19;53.85;;;51.05;;
27293;SDS011;14785;52.556;13.430;2023-07-09T01:11:46;8.82;;;8.23;;
27293;SDS011;14785;52.556;13.430;2023-07-09T01:14:12;15.00;;;14.07;;
27293;SDS011;14785;52.556;13.430;2023-07-09T01:16:46;12.60;;;11.80;;
27293;SDS011;14785;52.556;13.430;2023-07-09T01:19:21;10.93;;;10.00;;
27293;SDS011;14785;52.556;13.430;2023-07-09T01:21:48;12.35;;;11.52;;
27293;SDS011;14785;52.556;13.430;2023-07-09T01:24:45;20.85;;;19.63;;
27293;SDS011;14785;52.556;13.430;2023-07-09T01:27:13;12.97;;;11.90;;
27293;SDS011;14785;52.556;13.430;2023-07-09T01:29:38;23.60;;;22.13;;
27293;SDS011;14785;52.556;13.430;2023-07-09T01:32:05;12.98;;;11.98;;
27293;SDS011;14785;52.556;13.430;2023-07-09T01:34:32;10.55;;;9.57;;
27293;SDS011;14785;52.556;13.430;2023-07-09T01:36:57;18.75;;;17.52;;
27293;SDS011;14785;52.556;13.430;2023-07-09T01:39:23;13.15;;;12.25;;
27293;SDS011;14785;52.556;13.430;2023-07-09T01:41:50;17.13;;;16.05;;
27293;SDS011;14785;52.556;13.430;2023-07-09T01:44:16;9.57;;;8.87;;
27293;SDS011;14785;52.556;13.430;2023-07-09T01:46:41;20.90;;;19.37;;
27293;SDS011;14785;52.556;13.430;2023-07-09T01:49:07;13.87;;;12.97;;
27293;SDS011;14785;52.556;13.430;2023-07-09T01:51:34;20.88;;;19.60;;
27293;SDS011;14785;52.556;13.430;2023-07-09T01:54:01;13.13;;;12.20;;
27293;SDS011;14785;52.556;13.430;2023-07-09T01:56:26;15.60;;;14.50;;
27293;SDS011;14785;52.556;13.430;2023-07-09T01:58:52;17.80;;;16.43;;
27293;SDS011;14785;52.556;13.430;2023-07-09T02:01:17;16.17;;;14.97;;
27293;SDS011;14785;52.556;13.430;2023-07-09T02:03:44;22.45;;;21.00;;
27293;SDS011;14785;52.556;13.430;2023-07-09T02:06:10;24.92;;;23.38;;
27293;SDS011;14785;52.556;13.430;2023-07-09T02:08:37;16.85;;;15.75;;
27293;SDS011;14785;52.556;13.430;2023-07-09T02:11:03;13.63;;;12.75;;
27293;SDS011;14785;52.556;13.430;2023-07-09T02:13:28;21.17;;;19.80;;
27293;SDS011;14785;52.556;13.430;2023-07-09T02:15:53;16.17;;;15.17;;
27293;SDS011;14785;52.556;13.430;2023-07-09T02:18:19;12.07;;;11.17;;
27293;SDS011;14785;52.556;13.430;2023-07-09T02:20:47;23.57;;;22.00;;
27293;SDS011;14785;52.556;13.430;2023-07-09T02:23:12;10.60;;;9.90;;
27293;SDS011;14785;52.556;13.430;2023-07-09T02:25:38;9.23;;;8.63;;
27293;SDS011;14785;52.556;13.430;2023-07-09T02:28:03;31.50;;;29.63;;
27293;SDS011;14785;52.556;13.430;2023-07-09T02:30:28;55.90;;;52.90;;
27293;SDS011;14785;52.556;13.430;2023-07-09T02:32:54;14.87;;;13.77;;
27293;SDS011;14785;52.556;13.430;2023-07-09T02:35:20;68.43;;;64.77;;
27293;SDS011;14785;52.556;13.430;2023-07-09T02:37:46;18.77;;;17.63;;
27293;SDS011;14785;52.556;13.430;2023-07-09T02:40:11;20.33;;;19.07;;
27293;SDS011;14785;52.556;13.430;2023-07-09T02:45:03;15.07;;;14.17;;
27293;SDS011;14785;52.556;13.430;2023-07-09T02:47:29;16.63;;;15.52;;
27293;SDS011;14785;52.556;13.430;2023-07-09T02:49:54;15.53;;;14.43;;
27293;SDS011;14785;52.556;13.430;2023-07-09T02:52:19;18.47;;;17.03;;
27293;SDS011;14785;52.556;13.430;2023-07-09T02:54:45;25.90;;;24.27;;
27293;SDS011;14785;52.556;13.430;2023-07-09T02:57:11;13.13;;;12.13;;
27293;SDS011;14785;52.556;13.430;2023-07-09T02:59:36;12.98;;;12.18;;
27293;SDS011;14785;52.556;13.430;2023-07-09T03:02:02;16.57;;;15.33;;
27293;SDS011;14785;52.556;13.430;2023-07-09T03:04:28;21.60;;;20.30;;
27293;SDS011;14785;52.556;13.430;2023-07-09T03:06:53;25.57;;;24.03;;
27293;SDS011;14785;52.556;13.430;2023-07-09T03:09:19;19.03;;;17.67;;
27293;SDS011;14785;52.556;13.430;2023-07-09T03:11:45;18.88;;;17.75;;
27293;SDS011;14785;52.556;13.430;2023-07-09T03:14:11;36.10;;;34.13;;
27293;SDS011;14785;52.556;13.430;2023-07-09T03:16:36;26.33;;;24.60;;
27293;SDS011;14785;52.556;13.430;2023-07-09T03:19:02;24.23;;;22.80;;
27293;SDS011;14785;52.556;13.430;2023-07-09T03:21:29;17.23;;;16.13;;
27293;SDS011;14785;52.556;13.430;2023-07-09T03:23:54;14.77;;;13.90;;
27293;SDS011;14785;52.556;13.430;2023-07-09T03:26:21;20.20;;;18.75;;
27293;SDS011;14785;52.556;13.430;2023-07-09T03:28:46;15.07;;;14.00;;
27293;SDS011;14785;52.556;13.430;2023-07-09T03:31:12;23.53;;;22.17;;
27293;SDS011;14785;52.556;13.430;2023-07-09T03:33:38;22.45;;;20.88;;
27293;SDS011;14785;52.556;13.430;2023-07-09T03:36:03;8.93;;;8.13;;
27293;SDS011;14785;52.556;13.430;2023-07-09T03:38:29;13.85;;;12.90;;
27293;SDS011;14785;52.556;13.430;2023-07-09T03:40:56;24.92;;;23.48;;
27293;SDS011;14785;52.556;13.430;2023-07-09T03:43:22;11.53;;;10.63;;
27293;SDS011;14785;52.556;13.430;2023-07-09T03:45:48;13.43;;;12.45;;
27293;SDS011;14785;52.556;13.430;2023-07-09T03:48:15;11.80;;;10.80;;
27293;SDS011;14785;52.556;13.430;2023-07-09T03:50:42;8.18;;;7.55;;
27293;SDS011;14785;52.556;13.430;2023-07-09T03:53:10;17.35;;;16.25;;
27293;SDS011;14785;52.556;13.430;2023-07-09T03:55:35;13.10;;;12.10;;
27293;SDS011;14785;52.556;13.430;2023-07-09T03:58:00;12.73;;;11.87;;
27293;SDS011;14785;52.556;13.430;2023-07-09T04:00:28;15.18;;;14.13;;
27293;SDS011;14785;52.556;13.430;2023-07-09T04:02:54;14.82;;;13.93;;
27293;SDS011;14785;52.556;13.430;2023-07-09T04:05:21;21.83;;;20.13;;
27293;SDS011;14785;52.556;13.430;2023-07-09T04:07:47;17.90;;;16.77;;
27293;SDS011;14785;52.556;13.430;2023-07-09T04:10:13;24.30;;;22.77;;
27293;SDS011;14785;52.556;13.430;2023-07-09T04:12:38;15.98;;;14.50;;
27293;SDS011;14785;52.556;13.430;2023-07-09T04:15:04;10.37;;;9.47;;
27293;SDS011;14785;52.556;13.430;2023-07-09T04:17:30;13.18;;;12.18;;
27293;SDS011;14785;52.556;13.430;2023-07-09T04:19:56;22.70;;;21.20;;
27293;SDS011;14785;52.556;13.430;2023-07-09T04:22:22;7.73;;;7.03;;
27293;SDS011;14785;52.556;13.430;2023-07-09T04:24:47;10.70;;;9.77;;
27293;SDS011;14785;52.556;13.430;2023-07-09T04:27:13;14.13;;;13.23;;
27293;SDS011;14785;52.556;13.430;2023-07-09T04:29:39;16.52;;;14.93;;
27293;SDS011;14785;52.556;13.430;2023-07-09T04:32:06;10.10;;;9.05;;
27293;SDS011;14785;52.556;13.430;2023-07-09T04:34:33;19.45;;;18.27;;
27293;SDS011;14785;52.556;13.430;2023-07-09T04:36:58;20.03;;;18.57;;
27293;SDS011;14785;52.556;13.430;2023-07-09T04:39:24;15.20;;;12.93;;
27293;SDS011;14785;52.556;13.430;2023-07-09T04:41:50;14.40;;;13.32;;
27293;SDS011;14785;52.556;13.430;2023-07-09T04:44:15;16.33;;;15.10;;
27293;SDS011;14785;52.556;13.430;2023-07-09T04:46:41;34.50;;;32.50;;
27293;SDS011;14785;52.556;13.430;2023-07-09T04:49:06;32.73;;;30.63;;
27293;SDS011;14785;52.556;13.430;2023-07-09T04:51:32;9.53;;;8.77;;
27293;SDS011;14785;52.556;13.430;2023-07-09T04:56:23;19.17;;;17.77;;
27293;SDS011;14785;52.556;13.430;2023-07-09T04:58:49;36.20;;;33.97;;
27293;SDS011;14785;52.556;13.430;2023-07-09T05:01:14;32.30;;;30.50;;
27293;SDS011;14785;52.556;13.430;2023-07-09T05:03:39;12.10;;;11.20;;
27293;SDS011;14785;52.556;13.430;2023-07-09T05:06:05;12.63;;;11.70;;
27293;SDS011;14785;52.556;13.430;2023-07-09T05:08:30;15.47;;;14.23;;
27293;SDS011;14785;52.556;13.430;2023-07-09T05:10:56;16.75;;;15.45;;
27293;SDS011;14785;52.556;13.430;2023-07-09T05:13:23;17.42;;;16.13;;
27293;SDS011;14785;52.556;13.430;2023-07-09T05:15:49;33.63;;;31.73;;
27293;SDS011;14785;52.556;13.430;2023-07-09T05:18:15;26.92;;;24.95;;
27293;SDS011;14785;52.556;13.430;2023-07-09T05:20:41;15.27;;;14.27;;
27293;SDS011;14785;52.556;13.430;2023-07-09T05:23:10;17.25;;;15.88;;
27293;SDS011;14785;52.556;13.430;2023-07-09T05:25:35;19.80;;;18.55;;
27293;SDS011;14785;52.556;13.430;2023-07-09T05:28:01;26.10;;;24.53;;
27293;SDS011;14785;52.556;13.430;2023-07-09T05:30:27;19.50;;;18.38;;
27293;SDS011;14785;52.556;13.430;2023-07-09T05:32:52;14.20;;;13.30;;
27293;SDS011;14785;52.556;13.430;2023-07-09T05:35:22;15.13;;;14.15;;
27293;SDS011;14785;52.556;13.430;2023-07-09T05:37:50;13.77;;;12.95;;
27293;SDS011;14785;52.556;13.430;2023-07-09T05:40:16;9.88;;;9.18;;
27293;SDS011;14785;52.556;13.430;2023-07-09T05:42:41;23.67;;;22.37;;
27293;SDS011;14785;52.556;13.430;2023-07-09T05:45:06;13.93;;;13.00;;
27293;SDS011;14785;52.556;13.430;2023-07-09T05:47:32;14.32;;;13.27;;
27293;SDS011;14785;52.556;13.430;2023-07-09T05:49:58;20.70;;;19.50;;
27293;SDS011;14785;52.556;13.430;2023-07-09T05:52:23;17.07;;;15.53;;
27293;SDS011;14785;52.556;13.430;2023-07-09T05:54:49;11.02;;;10.20;;
27293;SDS011;14785;52.556;13.430;2023-07-09T05:57:15;12.98;;;12.15;;
27293;SDS011;14785;52.556;13.430;2023-07-09T05:59:41;14.40;;;13.30;;
27293;SDS011;14785;52.556;13.430;2023-07-09T06:02:13;14.93;;;13.93;;
27293;SDS011;14785;52.556;13.430;2023-07-09T06:04:40;11.80;;;10.98;;
27293;SDS011;14785;52.556;13.430;2023-07-09T06:07:07;14.10;;;13.18;;
27293;SDS011;14785;52.556;13.430;2023-07-09T06:09:33;11.32;;;10.48;;
27293;SDS011;14785;52.556;13.430;2023-07-09T06:11:59;30.90;;;28.90;;
27293;SDS011;14785;52.556;13.430;2023-07-09T06:14:26;15.18;;;14.10;;
27293;SDS011;14785;52.556;13.430;2023-07-09T06:16:51;9.93;;;7.65;;
27293;SDS011;14785;52.556;13.430;2023-07-09T06:19:17;12.03;;;11.13;;
27293;SDS011;14785;52.556;13.430;2023-07-09T06:21:42;11.47;;;10.37;;
27293;SDS011;14785;52.556;13.430;2023-07-09T06:24:07;12.73;;;11.87;;
27293;SDS011;14785;52.556;13.430;2023-07-09T06:26:33;8.10;;;7.40;;
27293;SDS011;14785;52.556;13.430;2023-07-09T06:28:59;12.13;;;11.33;;
27293;SDS011;14785;52.556;13.430;2023-07-09T06:31:24;16.13;;;15.10;;
27293;SDS011;14785;52.556;13.430;2023-07-09T06:33:50;6.20;;;5.77;;
27293;SDS011;14785;52.556;13.430;2023-07-09T06:36:16;6.38;;;5.95;;
27293;SDS011;14785;52.556;13.430;2023-07-09T06:38:43;7.72;;;7.13;;
27293;SDS011;14785;52.556;13.430;2023-07-09T06:41:09;7.97;;;7.38;;
27293;SDS011;14785;52.556;13.430;2023-07-09T06:43:35;8.40;;;7.85;;
27293;SDS011;14785;52.556;13.430;2023-07-09T06:46:03;7.90;;;7.00;;
27293;SDS011;14785;52.556;13.430;2023-07-09T06:48:30;11.43;;;7.38;;
27293;SDS011;14785;52.556;13.430;2023-07-09T06:50:57;7.63;;;6.45;;
27293;SDS011;14785;52.556;13.430;2023-07-09T06:53:23;7.05;;;6.35;;
27293;SDS011;14785;52.556;13.430;2023-07-09T06:55:50;7.88;;;7.05;;
27293;SDS011;14785;52.556;13.430;2023-07-09T06:58:16;7.13;;;6.53;;
27293;SDS011;14785;52.556;13.430;2023-07-09T07:00:42;8.50;;;7.88;;
27293;SDS011;14785;52.556;13.430;2023-07-09T07:03:08;7.83;;;7.23;;
27293;SDS011;14785;52.556;13.430;2023-07-09T07:05:34;10.88;;;7.07;;
27293;SDS011;14785;52.556;13.430;2023-07-09T07:08:00;6.75;;;6.25;;
27293;SDS011;14785;52.556;13.430;2023-07-09T07:10:27;7.45;;;6.75;;
27293;SDS011;14785;52.556;13.430;2023-07-09T07:12:52;8.95;;;6.80;;
27293;SDS011;14785;52.556;13.430;2023-07-09T07:15:19;8.07;;;7.43;;
27293;SDS011;14785;52.556;13.430;2023-07-09T07:17:45;8.45;;;7.65;;
27293;SDS011;14785;52.556;13.430;2023-07-09T07:20:11;7.68;;;6.72;;
27293;SDS011;14785;52.556;13.430;2023-07-09T07:22:38;12.77;;;11.65;;
27293;SDS011;14785;52.556;13.430;2023-07-09T07:25:04;7.88;;;7.28;;
27293;SDS011;14785;52.556;13.430;2023-07-09T07:27:35;9.82;;;8.90;;
27293;SDS011;14785;52.556;13.430;2023-07-09T07:30:02;8.52;;;7.93;;
27293;SDS011;14785;52.556;13.430;2023-07-09T07:32:27;8.90;;;8.05;;
27293;SDS011;14785;52.556;13.430;2023-07-09T07:34:52;8.00;;;7.37;;
27293;SDS011;14785;52.556;13.430;2023-07-09T07:37:20;8.57;;;7.95;;
27293;SDS011;14785;52.556;13.430;2023-07-09T07:39:46;6.93;;;6.43;;
27293;SDS011;14785;52.556;13.430;2023-07-09T07:44:38;9.30;;;8.50;;
27293;SDS011;14785;52.556;13.430;2023-07-09T07:47:03;7.70;;;7.00;;
27293;SDS011;14785;52.556;13.430;2023-07-09T07:49:29;6.68;;;5.97;;
27293;SDS011;14785;52.556;13.430;2023-07-09T07:51:55;8.80;;;8.02;;
27293;SDS011;14785;52.556;13.430;2023-07-09T07:54:21;9.80;;;9.00;;
27293;SDS011;14785;52.556;13.430;2023-07-09T07:56:46;7.87;;;7.27;;
27293;SDS011;14785;52.556;13.430;2023-07-09T07:59:12;8.87;;;7.30;;
27293;SDS011;14785;52.556;13.430;2023-07-09T08:01:38;7.57;;;6.78;;
27293;SDS011;14785;52.556;13.430;2023-07-09T08:04:03;6.63;;;6.03;;
27293;SDS011;14785;52.556;13.430;2023-07-09T08:06:30;6.20;;;5.70;;
27293;SDS011;14785;52.556;13.430;2023-07-09T08:08:56;6.07;;;5.57;;
27293;SDS011;14785;52.556;13.430;2023-07-09T08:13:47;9.63;;;8.32;;
27293;SDS011;14785;52.556;13.430;2023-07-09T08:16:13;8.03;;;7.37;;
27293;SDS011;14785;52.556;13.430;2023-07-09T08:18:38;10.77;;;9.77;;
27293;SDS011;14785;52.556;13.430;2023-07-09T08:21:04;8.10;;;7.38;;
27293;SDS011;14785;52.556;13.430;2023-07-09T08:23:29;7.87;;;7.13;;
27293;SDS011;14785;52.556;13.430;2023-07-09T08:25:55;7.47;;;6.78;;
27293;SDS011;14785;52.556;13.430;2023-07-09T08:28:22;6.43;;;5.90;;
27293;SDS011;14785;52.556;13.430;2023-07-09T08:30:47;8.80;;;7.07;;
27293;SDS011;14785;52.556;13.430;2023-07-09T08:33:13;7.30;;;6.60;;
27293;SDS011;14785;52.556;13.430;2023-07-09T08:35:39;5.73;;;5.33;;
27293;SDS011;14785;52.556;13.430;2023-07-09T08:38:07;7.18;;;6.57;;
27293;SDS011;14785;52.556;13.430;2023-07-09T08:40:33;8.50;;;5.87;;
27293;SDS011;14785;52.556;13.430;2023-07-09T08:43:02;5.63;;;5.23;;
27293;SDS011;14785;52.556;13.430;2023-07-09T08:45:56;6.97;;;5.28;;
27293;SDS011;14785;52.556;13.430;2023-07-09T08:48:38;6.10;;;5.50;;
27293;SDS011;14785;52.556;13.430;2023-07-09T08:51:10;5.88;;;5.35;;
27293;SDS011;14785;52.556;13.430;2023-07-09T08:53:42;6.47;;;5.88;;
27293;SDS011;14785;52.556;13.430;2023-07-09T08:56:10;6.65;;;5.90;;
27293;SDS011;14785;52.556;13.430;2023-07-09T08:58:35;6.85;;;6.15;;
27293;SDS011;14785;52.556;13.430;2023-07-09T09:01:03;10.07;;;5.88;;
27293;SDS011;14785;52.556;13.430;2023-07-09T09:06:22;6.57;;;5.97;;
27293;SDS011;14785;52.556;13.430;2023-07-09T09:14:30;6.63;;;5.03;;
27293;SDS011;14785;52.556;13.430;2023-07-09T09:16:58;7.57;;;5.80;;
27293;SDS011;14785;52.556;13.430;2023-07-09T09:21:56;5.93;;;5.32;;
27293;SDS011;14785;52.556;13.430;2023-07-09T09:26:59;7.78;;;5.47;;
27293;SDS011;14785;52.556;13.430;2023-07-09T09:29:25;5.23;;;4.83;;
27293;SDS011;14785;52.556;13.430;2023-07-09T09:31:52;6.22;;;5.40;;
27293;SDS011;14785;52.556;13.430;2023-07-09T09:34:26;5.47;;;5.03;;
27293;SDS011;14785;52.556;13.430;2023-07-09T09:36:54;5.60;;;5.10;;
27293;SDS011;14785;52.556;13.430;2023-07-09T09:39:23;5.30;;;4.90;;
27293;SDS011;14785;52.556;13.430;2023-07-09T09:41:53;6.68;;;5.57;;
27293;SDS011;14785;52.556;13.430;2023-07-09T09:44:29;6.85;;;6.15;;
27293;SDS011;14785;52.556;13.430;2023-07-09T09:46:55;6.82;;;6.35;;
27293;SDS011;14785;52.556;13.430;2023-07-09T09:49:21;5.60;;;5.10;;
27293;SDS011;14785;52.556;13.430;2023-07-09T09:51:47;7.03;;;5.75;;
27293;SDS011;14785;52.556;13.430;2023-07-09T09:54:24;6.18;;;5.20;;
27293;SDS011;14785;52.556;13.430;2023-07-09T09:56:53;6.82;;;6.13;;
27293;SDS011;14785;52.556;13.430;2023-07-09T10:02:23;6.35;;;5.20;;
27293;SDS011;14785;52.556;13.430;2023-07-09T10:04:50;7.15;;;6.45;;
27293;SDS011;14785;52.556;13.430;2023-07-09T10:07:34;5.95;;;5.45;;
27293;SDS011;14785;52.556;13.430;2023-07-09T10:10:08;6.30;;;5.70;;
27293;SDS011;14785;52.556;13.430;2023-07-09T10:12:40;10.98;;;5.35;;
27293;SDS011;14785;52.556;13.430;2023-07-09T10:15:19;5.50;;;5.00;;
27293;SDS011;14785;52.556;13.430;2023-07-09T10:23:38;6.13;;;5.25;;
27293;SDS011;14785;52.556;13.430;2023-07-09T10:39:56;9.20;;;5.75;;
27293;SDS011;14785;52.556;13.430;2023-07-09T10:44:54;5.20;;;4.82;;
27293;SDS011;14785;52.556;13.430;2023-07-09T10:47:41;4.35;;;4.00;;
27293;SDS011;14785;52.556;13.430;2023-07-09T10:50:31;7.97;;;6.28;;
27293;SDS011;14785;52.556;13.430;2023-07-09T10:53:00;8.90;;;6.75;;
27293;SDS011;14785;52.556;13.430;2023-07-09T10:58:04;5.38;;;4.88;;
27293;SDS011;14785;52.556;13.430;2023-07-09T11:00:40;5.15;;;4.75;;
27293;SDS011;14785;52.556;13.430;2023-07-09T11:03:15;6.30;;;4.65;;
27293;SDS011;14785;52.556;13.430;2023-07-09T11:05:44;5.68;;;5.10;;
27293;SDS011;14785;52.556;13.430;2023-07-09T11:08:54;5.10;;;4.60;;
27293;SDS011;14785;52.556;13.430;2023-07-09T11:11:03;6.40;;;4.88;;
27293;SDS011;14785;52.556;13.430;2023-07-09T11:13:40;8.20;;;4.57;;
27293;SDS011;14785;52.556;13.430;2023-07-09T11:16:14;4.90;;;4.47;;
27293;SDS011;14785;52.556;13.430;2023-07-09T11:18:52;4.90;;;4.50;;
27293;SDS011;14785;52.556;13.430;2023-07-09T11:23:49;5.00;;;4.60;;
27293;SDS011;14785;52.556;13.430;2023-07-09T11:26:30;5.72;;;4.70;;
27293;SDS011;14785;52.556;13.430;2023-07-09T11:36:32;11.65;;;6.25;;
27293;SDS011;14785;52.556;13.430;2023-07-09T11:38:59;6.15;;;4.60;;
27293;SDS011;14785;52.556;13.430;2023-07-09T11:44:03;9.27;;;4.80;;
27293;SDS011;14785;52.556;13.430;2023-07-09T11:46:40;7.72;;;4.80;;
27293;SDS011;14785;52.556;13.430;2023-07-09T11:49:15;5.50;;;5.00;;
27293;SDS011;14785;52.556;13.430;2023-07-09T11:51:46;5.10;;;4.70;;
27293;SDS011;14785;52.556;13.430;2023-07-09T11:54:18;7.80;;;4.75;;
27293;SDS011;14785;52.556;13.430;2023-07-09T11:56:54;5.43;;;4.32;;
27293;SDS011;14785;52.556;13.430;2023-07-09T11:59:23;5.15;;;4.65;;
27293;SDS011;14785;52.556;13.430;2023-07-09T12:01:49;5.90;;;5.40;;
27293;SDS011;14785;52.556;13.430;2023-07-09T12:04:18;5.85;;;5.05;;
27293;SDS011;14785;52.556;13.430;2023-07-09T12:06:45;4.70;;;4.28;;
27293;SDS011;14785;52.556;13.430;2023-07-09T12:09:19;4.78;;;4.45;;
27293;SDS011;14785;52.556;13.430;2023-07-09T12:11:47;5.00;;;4.60;;
27293;SDS011;14785;52.556;13.430;2023-07-09T12:14:20;5.20;;;4.70;;
27293;SDS011;14785;52.556;13.430;2023-07-09T12:16:48;8.68;;;4.72;;
27293;SDS011;14785;52.556;13.430;2023-07-09T12:19:19;7.05;;;5.22;;
27293;SDS011;14785;52.556;13.430;2023-07-09T12:21:47;5.97;;;4.88;;
27293;SDS011;14785;52.556;13.430;2023-07-09T12:26:57;5.30;;;4.90;;
27293;SDS011;14785;52.556;13.430;2023-07-09T12:29:34;5.53;;;4.80;;
27293;SDS011;14785;52.556;13.430;2023-07-09T12:32:11;5.10;;;4.70;;
27293;SDS011;14785;52.556;13.430;2023-07-09T12:34:38;6.55;;;5.00;;
27293;SDS011;14785;52.556;13.430;2023-07-09T12:37:04;4.93;;;4.53;;
27293;SDS011;14785;52.556;13.430;2023-07-09T12:39:30;5.75;;;5.25;;
27293;SDS011;14785;52.556;13.430;2023-07-09T12:42:01;5.25;;;4.85;;
27293;SDS011;14785;52.556;13.430;2023-07-09T12:44:28;6.03;;;5.38;;
27293;SDS011;14785;52.556;13.430;2023-07-09T12:47:00;6.65;;;5.60;;
27293;SDS011;14785;52.556;13.430;2023-07-09T12:49:27;5.78;;;5.28;;
27293;SDS011;14785;52.556;13.430;2023-07-09T12:51:55;5.50;;;5.03;;
27293;SDS011;14785;52.556;13.430;2023-07-09T12:54:21;4.80;;;4.40;;
27293;SDS011;14785;52.556;13.430;2023-07-09T12:56:50;5.75;;;5.18;;
27293;SDS011;14785;52.556;13.430;2023-07-09T12:59:18;6.72;;;5.47;;
27293;SDS011;14785;52.556;13.430;2023-07-09T13:01:55;5.10;;;4.70;;
27293;SDS011;14785;52.556;13.430;2023-07-09T13:04:31;5.47;;;4.97;;
27293;SDS011;14785;52.556;13.430;2023-07-09T13:07:00;4.90;;;4.50;;
27293;SDS011;14785;52.556;13.430;2023-07-09T13:09:26;5.10;;;4.30;;
27293;SDS011;14785;52.556;13.430;2023-07-09T13:11:53;4.97;;;4.57;;
27293;SDS011;14785;52.556;13.430;2023-07-09T13:14:25;6.85;;;5.97;;
27293;SDS011;14785;52.556;13.430;2023-07-09T13:16:51;5.85;;;4.68;;
27293;SDS011;14785;52.556;13.430;2023-07-09T13:19:17;6.35;;;5.05;;
27293;SDS011;14785;52.556;13.430;2023-07-09T13:21:44;7.75;;;4.88;;
27293;SDS011;14785;52.556;13.430;2023-07-09T13:24:14;5.25;;;4.85;;
27293;SDS011;14785;52.556;13.430;2023-07-09T13:26:44;5.85;;;5.32;;
27293;SDS011;14785;52.556;13.430;2023-07-09T13:29:17;7.43;;;4.88;;
27293;SDS011;14785;52.556;13.430;2023-07-09T13:31:44;5.32;;;4.82;;
27293;SDS011;14785;52.556;13.430;2023-07-09T13:34:24;4.93;;;4.53;;
27293;SDS011;14785;52.556;13.430;2023-07-09T13:36:52;6.10;;;5.60;;
27293;SDS011;14785;52.556;13.430;2023-07-09T13:39:19;10.57;;;5.38;;
27293;SDS011;14785;52.556;13.430;2023-07-09T13:41:45;5.57;;;4.85;;
27293;SDS011;14785;52.556;13.430;2023-07-09T13:44:14;5.32;;;4.93;;
27293;SDS011;14785;52.556;13.430;2023-07-09T13:46:42;6.40;;;5.00;;
27293;SDS011;14785;52.556;13.430;2023-07-09T13:49:11;5.20;;;4.75;;
27293;SDS011;14785;52.556;13.430;2023-07-09T13:51:39;5.35;;;4.95;;
27293;SDS011;14785;52.556;13.430;2023-07-09T13:54:09;8.38;;;5.93;;
27293;SDS011;14785;52.556;13.430;2023-07-09T13:56:40;6.45;;;5.80;;
27293;SDS011;14785;52.556;13.430;2023-07-09T13:59:39;6.30;;;5.70;;
27293;SDS011;14785;52.556;13.430;2023-07-09T14:01:58;6.13;;;5.53;;
27293;SDS011;14785;52.556;13.430;2023-07-09T14:04:26;5.03;;;4.63;;
27293;SDS011;14785;52.556;13.430;2023-07-09T14:06:53;6.88;;;5.88;;
27293;SDS011;14785;52.556;13.430;2023-07-09T14:09:19;5.78;;;5.28;;
27293;SDS011;14785;52.556;13.430;2023-07-09T14:11:45;6.40;;;5.07;;
27293;SDS011;14785;52.556;13.430;2023-07-09T14:14:22;5.95;;;5.50;;
27293;SDS011;14785;52.556;13.430;2023-07-09T14:16:49;6.03;;;5.50;;
27293;SDS011;14785;52.556;13.430;2023-07-09T14:19:17;5.57;;;5.07;;
27293;SDS011;14785;52.556;13.430;2023-07-09T14:21:44;5.47;;;5.00;;
27293;SDS011;14785;52.556;13.430;2023-07-09T14:24:21;6.72;;;6.13;;
27293;SDS011;14785;52.556;13.430;2023-07-09T14:26:49;6.22;;;5.13;;
27293;SDS011;14785;52.556;13.430;2023-07-09T14:29:15;5.60;;;5.10;;
27293;SDS011;14785;52.556;13.430;2023-07-09T14:31:41;6.72;;;5.57;;
27293;SDS011;14785;52.556;13.430;2023-07-09T14:36:57;9.27;;;5.90;;
27293;SDS011;14785;52.556;13.430;2023-07-09T14:39:25;6.68;;;6.15;;
27293;SDS011;14785;52.556;13.430;2023-07-09T14:41:51;5.90;;;5.40;;
27293;SDS011;14785;52.556;13.430;2023-07-09T14:44:24;5.95;;;5.35;;
27293;SDS011;14785;52.556;13.430;2023-07-09T14:46:54;7.88;;;5.80;;
27293;SDS011;14785;52.556;13.430;2023-07-09T14:49:21;5.80;;;5.20;;
27293;SDS011;14785;52.556;13.430;2023-07-09T14:51:47;6.20;;;5.68;;
27293;SDS011;14785;52.556;13.430;2023-07-09T14:54:24;5.35;;;4.75;;
27293;SDS011;14785;52.556;13.430;2023-07-09T14:56:52;5.78;;;5.28;;
27293;SDS011;14785;52.556;13.430;2023-07-09T14:59:18;5.45;;;4.95;;
27293;SDS011;14785;52.556;13.430;2023-07-09T15:01:44;5.55;;;5.15;;
27293;SDS011;14785;52.556;13.430;2023-07-09T15:06:45;5.57;;;5.18;;
27293;SDS011;14785;52.556;13.430;2023-07-09T15:09:12;6.32;;;5.50;;
27293;SDS011;14785;52.556;13.430;2023-07-09T15:11:37;5.00;;;4.60;;
27293;SDS011;14785;52.556;13.430;2023-07-09T15:14:04;5.57;;;5.00;;
27293;SDS011;14785;52.556;13.430;2023-07-09T15:16:34;5.18;;;4.68;;
27293;SDS011;14785;52.556;13.430;2023-07-09T15:18:59;4.97;;;4.50;;
27293;SDS011;14785;52.556;13.430;2023-07-09T15:21:24;5.60;;;5.10;;
27293;SDS011;14785;52.556;13.430;2023-07-09T15:23:50;5.35;;;4.85;;
27293;SDS011;14785;52.556;13.430;2023-07-09T15:26:15;7.23;;;5.37;;
27293;SDS011;14785;52.556;13.430;2023-07-09T15:28:41;5.88;;;5.47;;
27293;SDS011;14785;52.556;13.430;2023-07-09T15:31:09;6.20;;;5.78;;
27293;SDS011;14785;52.556;13.430;2023-07-09T15:33:35;6.20;;;5.70;;
27293;SDS011;14785;52.556;13.430;2023-07-09T15:36:01;6.40;;;5.90;;
27293;SDS011;14785;52.556;13.430;2023-07-09T15:38:28;6.07;;;5.13;;
27293;SDS011;14785;52.556;13.430;2023-07-09T15:40:55;5.70;;;5.25;;
27293;SDS011;14785;52.556;13.430;2023-07-09T15:43:22;4.88;;;4.57;;
27293;SDS011;14785;52.556;13.430;2023-07-09T15:45:49;7.43;;;5.85;;